createdAt,value
2022-10-02T00:00:24.985Z,16.86
2022-10-02T00:03:40.709Z,16.81
2022-10-02T00:06:41.117Z,16.81
2022-10-02T00:09:38.728Z,16.77
2022-10-02T00:12:32.823Z,16.84
2022-10-02T00:15:28.041Z,16.83
2022-10-02T00:18:17.090Z,16.92
2022-10-02T00:21:22.531Z,16.93
2022-10-02T00:24:20.117Z,16.95
2022-10-02T00:27:19.269Z,16.95
2022-10-02T00:30:16.677Z,17.01
2022-10-02T00:33:22.156Z,16.90
2022-10-02T00:36:24.036Z,16.74
2022-10-02T00:39:29.561Z,16.71
2022-10-02T00:43:11.257Z,16.58
2022-10-02T00:46:19.218Z,16.45
2022-10-02T00:49:34.813Z,16.49
2022-10-02T00:52:43.107Z,16.32
2022-10-02T00:55:55.006Z,16.29
2022-10-02T00:59:01.292Z,16.40
2022-10-02T01:01:58.502Z,16.44
2022-10-02T01:04:50.554Z,16.48
2022-10-02T01:07:46.303Z,16.52
2022-10-02T01:10:40.703Z,16.50
2022-10-02T01:13:33.640Z,16.42
2022-10-02T01:16:24.448Z,16.47
2022-10-02T01:19:27.136Z,16.55
2022-10-02T01:22:28.127Z,16.53
2022-10-02T01:25:19.283Z,16.53
2022-10-02T01:28:11.866Z,16.62
2022-10-02T01:31:07.732Z,16.73
2022-10-02T01:34:00.023Z,16.73
2022-10-02T01:36:52.175Z,16.66
2022-10-02T01:39:44.833Z,16.58
2022-10-02T01:42:37.195Z,16.62
2022-10-02T01:45:43.692Z,16.57
2022-10-02T01:48:46.664Z,16.57
2022-10-02T01:51:50.454Z,16.55
2022-10-02T01:54:57.906Z,16.58
2022-10-02T01:58:00.902Z,16.62
2022-10-02T02:01:10.442Z,16.56
2022-10-02T02:04:12.821Z,16.54
2022-10-02T02:07:13.984Z,16.69
2022-10-02T02:10:14.687Z,16.71
2022-10-02T02:13:05.177Z,16.69
2022-10-02T02:16:05.146Z,16.70
2022-10-02T02:19:06.755Z,16.82
2022-10-02T02:22:02.335Z,16.78
2022-10-02T02:24:59.387Z,16.88
2022-10-02T02:27:44.192Z,16.94
2022-10-02T02:30:37.619Z,16.94
2022-10-02T02:33:37.856Z,16.96
2022-10-02T02:36:37.874Z,16.99
2022-10-02T02:39:35.502Z,16.97
2022-10-02T02:42:31.856Z,16.85
2022-10-02T02:45:26.642Z,16.84
2022-10-02T02:48:22.497Z,16.88
2022-10-02T02:51:19.501Z,16.94
2022-10-02T02:54:16.891Z,16.89
2022-10-02T02:57:12.521Z,16.91
2022-10-02T03:00:06.730Z,16.90
2022-10-02T03:02:58.792Z,16.81
2022-10-02T03:05:54.335Z,16.85
2022-10-02T03:08:48.411Z,16.76
2022-10-02T03:11:53.825Z,16.75
2022-10-02T03:15:04.047Z,16.69
2022-10-02T03:18:16.410Z,16.67
2022-10-02T03:21:15.809Z,16.69
2022-10-02T03:24:17.711Z,16.91
2022-10-02T03:27:13.589Z,17.02
2022-10-02T03:30:09.762Z,17.06
2022-10-02T03:33:03.437Z,17.02
2022-10-02T03:35:56.964Z,16.93
2022-10-02T03:39:00.722Z,16.88
2022-10-02T03:41:58.478Z,16.87
2022-10-02T03:44:50.506Z,16.81
2022-10-02T03:47:42.520Z,16.70
2022-10-02T03:50:36.548Z,16.71
2022-10-02T03:53:35.142Z,16.66
2022-10-02T03:56:41.452Z,16.60
2022-10-02T03:59:42.828Z,16.63
2022-10-02T04:02:39.543Z,16.70
2022-10-02T04:05:37.928Z,16.67
2022-10-02T04:08:33.607Z,16.68
2022-10-02T04:11:33.151Z,16.78
2022-10-02T04:14:30.434Z,16.72
2022-10-02T04:17:26.477Z,16.72
2022-10-02T04:20:23.964Z,16.74
2022-10-02T04:23:21.632Z,16.81
2022-10-02T04:26:20.288Z,16.85
2022-10-02T04:29:14.617Z,16.93
2022-10-02T04:32:15.603Z,16.93
2022-10-02T04:35:16.085Z,16.94
2022-10-02T04:38:30.265Z,16.99
2022-10-02T04:41:38.336Z,16.92
2022-10-02T04:44:44.394Z,16.89
2022-10-02T04:48:07.762Z,16.94
2022-10-02T04:50:59.112Z,16.92
2022-10-02T04:53:46.809Z,16.96
2022-10-02T04:57:03.100Z,16.93
2022-10-02T05:00:07.374Z,17.02
2022-10-02T05:03:10.770Z,17.04
2022-10-02T05:06:15.361Z,17.07
2022-10-02T05:09:17.381Z,17.11
2022-10-02T05:12:24.094Z,17.19
2022-10-02T05:15:33.630Z,17.20
2022-10-02T05:18:45.166Z,17.27
2022-10-02T05:21:40.834Z,17.32
2022-10-02T05:24:46.177Z,17.29
2022-10-02T05:28:00.126Z,17.24
2022-10-02T05:30:57.224Z,17.25
2022-10-02T05:33:58.239Z,17.28
2022-10-02T05:37:06.877Z,17.23
2022-10-02T05:40:09.392Z,17.24
2022-10-02T05:43:08.938Z,17.35
2022-10-02T05:46:03.845Z,17.46
2022-10-02T05:49:01.667Z,17.52
2022-10-02T05:52:00.419Z,17.59
2022-10-02T05:54:57.990Z,17.61
2022-10-02T05:57:41.594Z,17.56
2022-10-02T06:00:40.109Z,17.48
2022-10-02T06:03:43.649Z,17.40
2022-10-02T06:06:41.258Z,17.29
2022-10-02T06:09:37.930Z,17.18
2022-10-02T06:12:36.535Z,17.05
2022-10-02T06:15:34.323Z,16.94
2022-10-02T06:18:31.583Z,16.92
2022-10-02T06:21:29.445Z,16.94
2022-10-02T06:24:27.758Z,16.92
2022-10-02T06:27:26.447Z,16.92
2022-10-02T06:30:14.524Z,16.99
2022-10-02T06:33:00.228Z,17.01
2022-10-02T06:35:59.895Z,17.04
2022-10-02T06:38:45.505Z,17.01
2022-10-02T06:41:26.946Z,17.11
2022-10-02T06:44:26.678Z,17.19
2022-10-02T06:47:35.047Z,17.22
2022-10-02T06:50:41.158Z,17.24
2022-10-02T06:53:41.976Z,17.36
2022-10-02T06:56:46.827Z,17.46
2022-10-02T06:59:47.595Z,17.44
2022-10-02T07:02:59.434Z,17.45
2022-10-02T07:06:21.951Z,17.54
2022-10-02T07:09:45.889Z,17.63
2022-10-02T07:12:55.034Z,17.73
2022-10-02T07:15:49.630Z,17.81
2022-10-02T07:18:45.681Z,17.78
2022-10-02T07:21:41.762Z,17.76
2022-10-02T07:24:52.352Z,17.78
2022-10-02T07:27:53.162Z,17.87
2022-10-02T07:30:56.109Z,17.93
2022-10-02T07:33:53.997Z,18.08
2022-10-02T07:36:50.823Z,18.24
2022-10-02T07:39:56.625Z,18.40
2022-10-02T07:42:56.559Z,18.55
2022-10-02T07:45:45.067Z,18.62
2022-10-02T07:48:53.700Z,18.23
2022-10-02T07:51:50.150Z,16.97
2022-10-02T07:55:07.416Z,16.23
2022-10-02T07:58:06.283Z,16.99
2022-10-02T08:00:43.696Z,17.67
2022-10-02T08:03:41.133Z,18.29
2022-10-02T08:06:35.331Z,18.80
2022-10-02T08:09:12.387Z,18.84
2022-10-02T08:12:00.973Z,17.95
2022-10-02T08:14:56.204Z,17.02
2022-10-02T08:17:46.163Z,16.30
2022-10-02T08:20:34.139Z,16.51
2022-10-02T08:23:29.351Z,17.51
2022-10-02T08:26:07.153Z,18.13
2022-10-02T08:28:48.447Z,18.26
2022-10-02T08:31:40.537Z,17.44
2022-10-02T08:34:20.978Z,16.83
2022-10-02T08:37:32.415Z,16.43
2022-10-02T08:41:04.982Z,16.11
2022-10-02T08:44:36.487Z,15.89
2022-10-02T08:48:11.313Z,15.91
2022-10-02T08:51:39.324Z,17.49
2022-10-02T08:54:58.797Z,17.99
2022-10-02T08:58:28.583Z,17.20
2022-10-02T09:01:40.136Z,16.58
2022-10-02T09:05:09.802Z,16.24
2022-10-02T09:08:29.354Z,16.07
2022-10-02T09:11:48.625Z,15.79
2022-10-02T09:14:55.596Z,15.43
2022-10-02T09:18:00.618Z,15.64
2022-10-02T09:21:15.074Z,17.06
2022-10-02T09:24:34.315Z,18.19
2022-10-02T09:27:45.924Z,18.43
2022-10-02T09:30:50.421Z,17.59
2022-10-02T09:34:09.413Z,16.87
2022-10-02T09:37:28.394Z,16.34
2022-10-02T09:40:43.318Z,15.72
2022-10-02T09:44:06.412Z,15.30
2022-10-02T09:47:40.988Z,15.60
2022-10-02T09:51:10.012Z,17.02
2022-10-02T09:54:26.665Z,18.24
2022-10-02T09:58:07.236Z,18.54
2022-10-02T10:01:37.958Z,17.41
2022-10-02T10:05:07.366Z,16.62
2022-10-02T10:08:25.760Z,16.38
2022-10-02T10:11:47.850Z,16.53
2022-10-02T10:15:10.451Z,16.70
2022-10-02T10:18:39.495Z,16.79
2022-10-02T10:22:22.310Z,16.79
2022-10-02T10:25:11.938Z,16.72
2022-10-02T10:28:22.399Z,16.55
2022-10-02T10:31:31.253Z,16.42
2022-10-02T10:35:00.428Z,16.14
2022-10-02T10:38:12.116Z,15.86
2022-10-02T10:41:04.614Z,15.71
2022-10-02T10:44:20.183Z,15.66
2022-10-02T10:47:22.073Z,15.70
2022-10-02T10:50:38.683Z,15.83
2022-10-02T10:53:50.054Z,15.93
2022-10-02T10:56:37.201Z,15.85
2022-10-02T11:00:03.193Z,15.67
2022-10-02T11:03:31.915Z,15.46
2022-10-02T11:06:35.997Z,15.96
2022-10-02T11:09:55.759Z,17.28
2022-10-02T11:13:06.551Z,17.93
2022-10-02T11:16:26.067Z,18.31
2022-10-02T11:19:41.226Z,18.61
2022-10-02T11:22:45.573Z,19.15
2022-10-02T11:25:46.474Z,19.77
2022-10-02T11:28:48.528Z,19.89
2022-10-02T11:31:47.216Z,19.06
2022-10-02T11:35:18.562Z,18.03
2022-10-02T11:38:38.631Z,17.26
2022-10-02T11:41:49.459Z,16.78
2022-10-02T11:44:52.564Z,16.96
2022-10-02T11:48:12.459Z,18.29
2022-10-02T11:51:29.210Z,19.42
2022-10-02T11:54:38.462Z,19.73
2022-10-02T11:57:41.426Z,18.82
2022-10-02T12:00:58.818Z,18.09
2022-10-02T12:04:04.245Z,17.49
2022-10-02T12:07:13.714Z,17.18
2022-10-02T12:10:33.246Z,16.88
2022-10-02T12:13:47.208Z,16.63
2022-10-02T12:16:57.050Z,16.46
2022-10-02T12:20:24.711Z,16.35
2022-10-02T12:23:46.663Z,16.13
2022-10-02T12:27:04.179Z,15.98
2022-10-02T12:30:06.384Z,15.86
2022-10-02T12:33:30.683Z,16.89
2022-10-02T12:36:39.701Z,18.53
2022-10-02T12:39:50.823Z,19.05
2022-10-02T12:42:47.119Z,18.25
2022-10-02T12:45:58.851Z,17.51
2022-10-02T12:49:13.789Z,17.15
2022-10-02T12:52:39.358Z,17.05
2022-10-02T12:56:13.692Z,16.78
2022-10-02T12:59:16.134Z,16.33
2022-10-02T13:02:59.661Z,16.29
2022-10-02T13:06:21.284Z,17.56
2022-10-02T13:09:29.866Z,18.24
2022-10-02T13:12:41.340Z,18.63
2022-10-02T13:15:40.162Z,17.83
2022-10-02T13:18:45.082Z,17.13
2022-10-02T13:21:36.089Z,16.61
2022-10-02T13:24:48.593Z,16.11
2022-10-02T13:27:50.001Z,16.08
2022-10-02T13:30:52.498Z,16.85
2022-10-02T13:34:07.856Z,16.59
2022-10-02T13:37:15.532Z,16.50
2022-10-02T13:40:21.687Z,16.65
2022-10-02T13:43:34.877Z,16.81
2022-10-02T13:46:45.820Z,16.96
2022-10-02T13:49:30.414Z,17.07
2022-10-02T13:52:33.772Z,17.08
2022-10-02T13:55:27.843Z,17.25
2022-10-02T13:58:38.900Z,17.46
2022-10-02T14:01:44.815Z,17.76
2022-10-02T14:04:50.599Z,17.99
2022-10-02T14:08:09.211Z,18.14
2022-10-02T14:11:15.941Z,18.29
2022-10-02T14:14:26.490Z,18.46
2022-10-02T14:17:34.573Z,18.63
2022-10-02T14:20:44.671Z,18.81
2022-10-02T14:23:53.959Z,19.16
2022-10-02T14:27:03.682Z,19.39
2022-10-02T14:30:03.957Z,19.46
2022-10-02T14:33:03.477Z,19.37
2022-10-02T14:36:03.514Z,19.30
2022-10-02T14:39:11.873Z,19.33
2022-10-02T14:42:23.827Z,19.40
2022-10-02T14:45:31.037Z,19.49
2022-10-02T14:48:36.436Z,19.65
2022-10-02T14:51:41.799Z,19.38
2022-10-02T14:55:04.962Z,18.02
2022-10-02T14:58:25.979Z,16.93
2022-10-02T15:01:23.426Z,16.85
2022-10-02T15:04:29.573Z,17.82
2022-10-02T15:07:26.917Z,18.18
2022-10-02T15:10:23.518Z,18.44
2022-10-02T15:13:28.796Z,18.47
2022-10-02T15:16:52.621Z,18.49
2022-10-02T15:19:55.967Z,18.62
2022-10-02T15:23:00.544Z,18.65
2022-10-02T15:26:09.746Z,18.80
2022-10-02T15:29:14.361Z,19.05
2022-10-02T15:32:37.068Z,18.98
2022-10-02T15:35:49.172Z,17.64
2022-10-02T15:39:03.689Z,16.51
2022-10-02T15:41:49.647Z,16.16
2022-10-02T15:45:02.238Z,16.94
2022-10-02T15:47:57.313Z,17.51
2022-10-02T15:50:58.932Z,17.81
2022-10-02T15:54:00.700Z,17.95
2022-10-02T15:57:07.342Z,18.05
2022-10-02T16:00:11.419Z,18.00
2022-10-02T16:02:58.402Z,18.01
2022-10-02T16:05:43.832Z,18.07
2022-10-02T16:08:41.911Z,18.08
2022-10-02T16:11:32.103Z,18.14
2022-10-02T16:14:13.918Z,18.17
2022-10-02T16:17:14.644Z,18.21
2022-10-02T16:20:03.917Z,18.26
2022-10-02T16:22:55.682Z,18.29
2022-10-02T16:25:38.135Z,17.97
2022-10-02T16:28:20.599Z,16.78
2022-10-02T16:31:13.550Z,15.70
2022-10-02T16:33:59.069Z,15.27
2022-10-02T16:36:41.490Z,16.06
2022-10-02T16:39:31.936Z,16.68
2022-10-02T16:42:14.700Z,16.89
2022-10-02T16:45:04.553Z,16.92
2022-10-02T16:47:44.761Z,17.04
2022-10-02T16:50:24.866Z,17.11
2022-10-02T16:53:02.397Z,17.11
2022-10-02T16:55:39.022Z,17.00
2022-10-02T16:58:25.635Z,16.92
2022-10-02T17:01:02.179Z,16.99
2022-10-02T17:03:38.843Z,17.05
2022-10-02T17:06:20.613Z,17.09
2022-10-02T17:09:06.579Z,17.09
2022-10-02T17:11:48.648Z,17.07
2022-10-02T17:14:25.483Z,17.04
2022-10-02T17:17:03.758Z,16.99
2022-10-02T17:19:45.887Z,16.91
2022-10-02T17:22:33.292Z,16.82
2022-10-02T17:25:16.102Z,16.79
2022-10-02T17:27:54.260Z,16.82
2022-10-02T17:30:29.021Z,16.85
2022-10-02T17:33:16.331Z,16.90
2022-10-02T17:35:56.404Z,16.94
2022-10-02T17:38:59.979Z,16.94
2022-10-02T17:41:46.443Z,16.97
2022-10-02T17:44:26.304Z,17.00
2022-10-02T17:47:36.201Z,16.97
2022-10-02T17:50:26.912Z,16.82
2022-10-02T17:53:31.558Z,16.75
2022-10-02T17:56:30.901Z,16.57
2022-10-02T17:59:21.005Z,16.46
2022-10-02T18:02:02.204Z,16.46
2022-10-02T18:04:46.268Z,16.52
2022-10-02T18:07:36.779Z,16.57
2022-10-02T18:10:19.737Z,16.52
2022-10-02T18:13:18.440Z,16.51
2022-10-02T18:16:23.034Z,16.59
2022-10-02T18:19:16.120Z,16.57
2022-10-02T18:21:59.209Z,16.65
2022-10-02T18:24:46.495Z,16.59
2022-10-02T18:27:37.121Z,16.53
2022-10-02T18:30:17.491Z,16.55
2022-10-02T18:33:25.802Z,16.60
2022-10-02T18:36:12.913Z,16.57
2022-10-02T18:38:56.112Z,16.59
2022-10-02T18:41:44.832Z,16.52
2022-10-02T18:44:36.023Z,16.53
2022-10-02T18:47:17.479Z,16.47
2022-10-02T18:50:05.703Z,16.43
2022-10-02T18:52:49.982Z,16.44
2022-10-02T18:55:41.046Z,16.36
2022-10-02T18:58:24.575Z,16.27
2022-10-02T19:01:19.315Z,16.25
2022-10-02T19:04:08.800Z,16.17
2022-10-02T19:06:52.408Z,16.21
2022-10-02T19:09:28.483Z,16.15
2022-10-02T19:12:05.230Z,16.17
2022-10-02T19:14:42.536Z,16.20
2022-10-02T19:17:18.547Z,16.20
2022-10-02T19:19:50.515Z,16.18
2022-10-02T19:22:25.957Z,16.22
2022-10-02T19:25:05.207Z,16.28
2022-10-02T19:27:38.695Z,16.29
2022-10-02T19:30:25.526Z,16.32
2022-10-02T19:33:00.051Z,16.28
2022-10-02T19:35:34.617Z,16.26
2022-10-02T19:38:20.573Z,16.27
2022-10-02T19:40:58.071Z,16.18
2022-10-02T19:43:33.856Z,16.18
2022-10-02T19:46:10.849Z,16.27
2022-10-02T19:48:46.729Z,16.33
2022-10-02T19:51:22.626Z,16.27
2022-10-02T19:54:01.397Z,16.30
2022-10-02T19:56:39.834Z,16.37
2022-10-02T19:59:18.594Z,16.44
2022-10-02T20:02:20.225Z,16.54
2022-10-02T20:04:53.960Z,16.59
2022-10-02T20:07:29.863Z,16.61
2022-10-02T20:10:05.997Z,16.69
2022-10-02T20:12:41.916Z,16.76
2022-10-02T20:15:18.563Z,16.78
2022-10-02T20:17:50.349Z,16.75
2022-10-02T20:20:22.402Z,16.65
2022-10-02T20:22:58.950Z,16.56
2022-10-02T20:25:35.681Z,16.49
2022-10-02T20:28:18.324Z,16.44
2022-10-02T20:30:54.176Z,16.41
2022-10-02T20:33:32.489Z,16.36
2022-10-02T20:36:14.291Z,16.29
2022-10-02T20:38:49.015Z,16.25
2022-10-02T20:41:24.885Z,16.27
2022-10-02T20:44:03.185Z,16.22
2022-10-02T20:46:53.135Z,16.28
2022-10-02T20:49:52.868Z,16.15
2022-10-02T20:53:05.597Z,16.11
2022-10-02T20:55:43.466Z,16.19
2022-10-02T20:58:48.269Z,16.14
2022-10-02T21:01:22.503Z,16.17
2022-10-02T21:04:23.533Z,16.19
2022-10-02T21:07:35.134Z,16.27
2022-10-02T21:10:45.552Z,16.32
2022-10-02T21:13:41.599Z,16.30
2022-10-02T21:16:42.237Z,16.32
2022-10-02T21:19:43.514Z,16.29
2022-10-02T21:22:44.621Z,16.33
2022-10-02T21:25:42.829Z,16.29
2022-10-02T21:28:57.916Z,16.28
2022-10-02T21:31:52.966Z,16.25
2022-10-02T21:34:35.299Z,16.28
2022-10-02T21:37:22.386Z,16.22
2022-10-02T21:40:26.429Z,16.18
2022-10-02T21:43:30.476Z,16.11
2022-10-02T21:46:35.976Z,16.12
2022-10-02T21:49:41.958Z,16.14
2022-10-02T21:52:43.850Z,16.12
2022-10-02T21:55:42.724Z,16.12
2022-10-02T21:58:53.866Z,16.10
2022-10-02T22:02:09.951Z,16.06
2022-10-02T22:05:20.391Z,15.95
2022-10-02T22:08:03.316Z,16.07
2022-10-02T22:10:43.320Z,16.09
2022-10-02T22:13:25.428Z,16.15
2022-10-02T22:16:15.263Z,16.19
2022-10-02T22:18:55.696Z,16.06
2022-10-02T22:21:49.588Z,16.00
2022-10-02T22:24:41.673Z,16.04
2022-10-02T22:27:29.755Z,15.99
2022-10-02T22:29:59.958Z,15.92
2022-10-02T22:33:10.308Z,15.78
2022-10-02T22:36:22.163Z,15.89
2022-10-02T22:39:02.380Z,15.86
2022-10-02T22:41:44.335Z,15.89
2022-10-02T22:44:24.745Z,15.93
2022-10-02T22:47:03.123Z,15.93
2022-10-02T22:49:45.599Z,15.88
2022-10-02T22:52:25.360Z,15.84
2022-10-02T22:55:03.149Z,15.88
2022-10-02T22:57:43.415Z,15.90
2022-10-02T23:00:21.034Z,15.84
2022-10-02T23:02:59.584Z,15.76
2022-10-02T23:05:37.974Z,15.72
2022-10-02T23:08:33.095Z,15.71
2022-10-02T23:11:14.616Z,15.76
2022-10-02T23:13:49.991Z,15.84
2022-10-02T23:16:29.268Z,15.82
2022-10-02T23:19:10.279Z,15.77
2022-10-02T23:21:50.579Z,15.72
2022-10-02T23:24:29.404Z,15.72
2022-10-02T23:27:12.899Z,15.70
2022-10-02T23:29:55.108Z,15.83
2022-10-02T23:32:36.092Z,15.82
2022-10-02T23:35:14.775Z,15.89
2022-10-02T23:37:54.098Z,15.96
2022-10-02T23:40:44.026Z,16.03
2022-10-02T23:43:21.821Z,15.96
2022-10-02T23:46:02.054Z,15.98
2022-10-02T23:48:34.693Z,15.94
2022-10-02T23:51:16.551Z,15.96
2022-10-02T23:54:16.136Z,15.97
2022-10-02T23:57:14.890Z,15.93
